sensor_id;sensor_type;location;lat;lon;timestamp;pressure;altitude;pressure_sealevel;temperature;humidity
15914;BME280;8055;51.930;8.840;2023-08-30T00:02:03;75189.47;;;-145.72;100.00
15914;BME280;8055;51.930;8.840;2023-08-30T00:04:29;75193.63;;;-145.72;100.00
15914;BME280;8055;51.930;8.840;2023-08-30T00:06:54;75199.81;;;-145.72;100.00
15914;BME280;8055;51.930;8.840;2023-08-30T00:09:19;75191.56;;;-145.72;100.00
15914;BME280;8055;51.930;8.840;2023-08-30T00:11:45;75193.63;;;-145.72;100.00
15914;BME280;8055;51.930;8.840;2023-08-30T00:14:10;75189.47;;;-145.72;100.00
15914;BME280;8055;51.930;8.840;2023-08-30T00:16:36;75193.63;;;-145.72;100.00
15914;BME280;8055;51.930;8.840;2023-08-30T00:19:03;75191.56;;;-145.72;100.00
15914;BME280;8055;51.930;8.840;2023-08-30T00:21:29;75185.34;;;-145.72;100.00
15914;BME280;8055;51.930;8.840;2023-08-30T00:23:54;75191.56;;;-145.72;100.00
15914;BME280;8055;51.930;8.840;2023-08-30T00:26:19;75197.75;;;-145.72;100.00
15914;BME280;8055;51.930;8.840;2023-08-30T00:28:45;75195.69;;;-145.72;100.00
15914;BME280;8055;51.930;8.840;2023-08-30T00:31:10;75193.63;;;-145.72;100.00
15914;BME280;8055;51.930;8.840;2023-08-30T00:33:37;75201.91;;;-145.72;100.00
15914;BME280;8055;51.930;8.840;2023-08-30T00:36:03;75218.44;;;-145.72;100.00
15914;BME280;8055;51.930;8.840;2023-08-30T00:38:29;75214.31;;;-145.72;100.00
15914;BME280;8055;51.930;8.840;2023-08-30T00:40:54;75222.59;;;-145.72;100.00
15914;BME280;8055;51.930;8.840;2023-08-30T00:43:20;75228.78;;;-145.72;100.00
15914;BME280;8055;51.930;8.840;2023-08-30T00:45:47;75226.72;;;-145.72;100.00
15914;BME280;8055;51.930;8.840;2023-08-30T00:48:13;75224.66;;;-145.72;100.00
15914;BME280;8055;51.930;8.840;2023-08-30T00:50:39;75228.78;;;-145.72;100.00
15914;BME280;8055;51.930;8.840;2023-08-30T00:53:05;75228.78;;;-145.72;100.00
15914;BME280;8055;51.930;8.840;2023-08-30T00:55:34;75224.66;;;-145.72;100.00
15914;BME280;8055;51.930;8.840;2023-08-30T00:58:00;75210.16;;;-145.72;100.00
15914;BME280;8055;51.930;8.840;2023-08-30T01:00:28;75201.91;;;-145.72;100.00
15914;BME280;8055;51.930;8.840;2023-08-30T01:02:54;75212.25;;;-145.72;100.00
15914;BME280;8055;51.930;8.840;2023-08-30T01:05:20;75206.03;;;-145.72;100.00
15914;BME280;8055;51.930;8.840;2023-08-30T01:07:45;75203.97;;;-145.72;100.00
15914;BME280;8055;51.930;8.840;2023-08-30T01:10:11;75201.91;;;-145.72;100.00
15914;BME280;8055;51.930;8.840;2023-08-30T01:12:48;75199.81;;;-145.72;100.00
15914;BME280;8055;51.930;8.840;2023-08-30T01:15:22;75197.75;;;-145.72;100.00
15914;BME280;8055;51.930;8.840;2023-08-30T01:17:49;75197.75;;;-145.72;100.00
15914;BME280;8055;51.930;8.840;2023-08-30T01:20:17;75201.91;;;-145.72;100.00
15914;BME280;8055;51.930;8.840;2023-08-30T01:23:03;75193.63;;;-145.72;100.00
15914;BME280;8055;51.930;8.840;2023-08-30T01:28:16;75187.41;;;-145.72;100.00
15914;BME280;8055;51.930;8.840;2023-08-30T01:30:44;75187.41;;;-145.72;100.00
15914;BME280;8055;51.930;8.840;2023-08-30T01:33:11;75185.34;;;-145.72;100.00
15914;BME280;8055;51.930;8.840;2023-08-30T01:35:39;75191.56;;;-145.72;100.00
15914;BME280;8055;51.930;8.840;2023-08-30T01:38:07;75191.56;;;-145.72;100.00
15914;BME280;8055;51.930;8.840;2023-08-30T01:40:40;75189.47;;;-145.72;100.00
15914;BME280;8055;51.930;8.840;2023-08-30T01:43:07;75187.41;;;-145.72;100.00
15914;BME280;8055;51.930;8.840;2023-08-30T01:45:35;75187.41;;;-145.72;100.00
15914;BME280;8055;51.930;8.840;2023-08-30T01:48:01;75203.97;;;-145.72;100.00
15914;BME280;8055;51.930;8.840;2023-08-30T01:50:28;75191.56;;;-145.72;100.00
15914;BME280;8055;51.930;8.840;2023-08-30T01:52:53;75197.75;;;-145.72;100.00
15914;BME280;8055;51.930;8.840;2023-08-30T01:55:21;75191.56;;;-145.72;100.00
15914;BME280;8055;51.930;8.840;2023-08-30T01:57:48;75193.63;;;-145.72;100.00
15914;BME280;8055;51.930;8.840;2023-08-30T02:00:14;75191.56;;;-145.72;100.00
15914;BME280;8055;51.930;8.840;2023-08-30T02:02:39;75193.63;;;-145.72;100.00
15914;BME280;8055;51.930;8.840;2023-08-30T02:05:05;75193.63;;;-145.72;100.00
15914;BME280;8055;51.930;8.840;2023-08-30T02:07:42;75183.28;;;-145.72;100.00
15914;BME280;8055;51.930;8.840;2023-08-30T02:10:10;75172.94;;;-145.72;100.00
15914;BME280;8055;51.930;8.840;2023-08-30T02:12:43;75170.88;;;-145.72;100.00
15914;BME280;8055;51.930;8.840;2023-08-30T02:15:11;75170.88;;;-145.72;100.00
15914;BME280;8055;51.930;8.840;2023-08-30T02:17:37;75158.44;;;-145.72;100.00
15914;BME280;8055;51.930;8.840;2023-08-30T02:20:05;75160.50;;;-145.72;100.00
15914;BME280;8055;51.930;8.840;2023-08-30T02:22:31;75160.50;;;-145.72;100.00
15914;BME280;8055;51.930;8.840;2023-08-30T02:24:56;75156.38;;;-145.72;100.00
15914;BME280;8055;51.930;8.840;2023-08-30T02:27:21;75154.31;;;-145.72;100.00
15914;BME280;8055;51.930;8.840;2023-08-30T02:29:47;75141.91;;;-145.72;100.00
15914;BME280;8055;51.930;8.840;2023-08-30T02:32:12;75148.09;;;-145.72;100.00
15914;BME280;8055;51.930;8.840;2023-08-30T02:34:37;75150.16;;;-145.72;100.00
15914;BME280;8055;51.930;8.840;2023-08-30T02:37:03;75143.97;;;-145.72;100.00
15914;BME280;8055;51.930;8.840;2023-08-30T02:39:28;75141.91;;;-145.72;100.00
15914;BME280;8055;51.930;8.840;2023-08-30T02:41:54;75131.56;;;-145.72;100.00
15914;BME280;8055;51.930;8.840;2023-08-30T02:44:19;75133.63;;;-145.72;100.00
15914;BME280;8055;51.930;8.840;2023-08-30T02:46:44;75137.75;;;-145.72;100.00
15914;BME280;8055;51.930;8.840;2023-08-30T02:49:10;75133.63;;;-145.72;100.00
15914;BME280;8055;51.930;8.840;2023-08-30T02:51:36;75125.34;;;-145.72;100.00
15914;BME280;8055;51.930;8.840;2023-08-30T02:54:02;75121.22;;;-145.72;100.00
15914;BME280;8055;51.930;8.840;2023-08-30T02:56:28;75121.22;;;-145.72;100.00
15914;BME280;8055;51.930;8.840;2023-08-30T02:58:53;75117.06;;;-145.72;100.00
15914;BME280;8055;51.930;8.840;2023-08-30T03:01:18;75121.22;;;-145.72;100.00
15914;BME280;8055;51.930;8.840;2023-08-30T03:03:45;75110.88;;;-145.72;100.00
15914;BME280;8055;51.930;8.840;2023-08-30T03:06:11;75104.66;;;-145.72;100.00
15914;BME280;8055;51.930;8.840;2023-08-30T03:08:36;75102.59;;;-145.72;100.00
15914;BME280;8055;51.930;8.840;2023-08-30T03:11:12;75104.66;;;-145.72;100.00
15914;BME280;8055;51.930;8.840;2023-08-30T03:13:37;75100.53;;;-145.72;100.00
15914;BME280;8055;51.930;8.840;2023-08-30T03:16:13;75096.38;;;-145.72;100.00
15914;BME280;8055;51.930;8.840;2023-08-30T03:18:39;75096.38;;;-145.72;100.00
15914;BME280;8055;51.930;8.840;2023-08-30T03:21:05;75112.94;;;-145.72;100.00
15914;BME280;8055;51.930;8.840;2023-08-30T03:23:31;75102.59;;;-145.72;100.00
15914;BME280;8055;51.930;8.840;2023-08-30T03:25:58;75094.31;;;-145.72;100.00
15914;BME280;8055;51.930;8.840;2023-08-30T03:28:23;75094.31;;;-145.72;100.00
15914;BME280;8055;51.930;8.840;2023-08-30T03:30:49;75088.09;;;-145.72;100.00
15914;BME280;8055;51.930;8.840;2023-08-30T03:33:14;75083.97;;;-145.72;100.00
15914;BME280;8055;51.930;8.840;2023-08-30T03:35:40;75081.91;;;-145.72;100.00
15914;BME280;8055;51.930;8.840;2023-08-30T03:38:05;75083.97;;;-145.72;100.00
15914;BME280;8055;51.930;8.840;2023-08-30T03:40:31;75083.97;;;-145.72;100.00
15914;BME280;8055;51.930;8.840;2023-08-30T03:42:56;75090.19;;;-145.72;100.00
15914;BME280;8055;51.930;8.840;2023-08-30T03:45:22;75081.91;;;-145.72;100.00
15914;BME280;8055;51.930;8.840;2023-08-30T03:47:47;75081.91;;;-145.72;100.00
15914;BME280;8055;51.930;8.840;2023-08-30T03:50:13;75075.69;;;-145.72;100.00
15914;BME280;8055;51.930;8.840;2023-08-30T03:52:39;75077.75;;;-145.72;100.00
15914;BME280;8055;51.930;8.840;2023-08-30T03:55:04;75079.81;;;-145.72;100.00
15914;BME280;8055;51.930;8.840;2023-08-30T03:57:30;75079.81;;;-145.72;100.00
15914;BME280;8055;51.930;8.840;2023-08-30T03:59:55;75073.63;;;-145.72;100.00
15914;BME280;8055;51.930;8.840;2023-08-30T04:02:20;75071.56;;;-145.72;100.00
15914;BME280;8055;51.930;8.840;2023-08-30T04:04:49;75063.28;;;-145.72;100.00
15914;BME280;8055;51.930;8.840;2023-08-30T04:07:15;75059.13;;;-145.72;100.00
15914;BME280;8055;51.930;8.840;2023-08-30T04:09:40;75055.00;;;-145.72;100.00
15914;BME280;8055;51.930;8.840;2023-08-30T04:12:06;75046.72;;;-145.72;100.00
15914;BME280;8055;51.930;8.840;2023-08-30T04:14:31;75042.59;;;-145.72;100.00
15914;BME280;8055;51.930;8.840;2023-08-30T04:16:57;75036.38;;;-145.72;100.00
15914;BME280;8055;51.930;8.840;2023-08-30T04:19:22;75036.38;;;-145.72;100.00
15914;BME280;8055;51.930;8.840;2023-08-30T04:21:48;75023.97;;;-145.72;100.00
15914;BME280;8055;51.930;8.840;2023-08-30T04:24:14;75017.75;;;-145.72;100.00
15914;BME280;8055;51.930;8.840;2023-08-30T04:26:40;75013.63;;;-145.72;100.00
15914;BME280;8055;51.930;8.840;2023-08-30T04:29:06;75017.75;;;-145.72;100.00
15914;BME280;8055;51.930;8.840;2023-08-30T04:31:31;75013.63;;;-145.72;100.00
15914;BME280;8055;51.930;8.840;2023-08-30T04:33:56;75007.41;;;-145.72;100.00
15914;BME280;8055;51.930;8.840;2023-08-30T04:36:22;75015.69;;;-145.72;100.00
15914;BME280;8055;51.930;8.840;2023-08-30T04:38:48;75013.63;;;-145.72;100.00
15914;BME280;8055;51.930;8.840;2023-08-30T04:41:13;75013.63;;;-145.72;100.00
15914;BME280;8055;51.930;8.840;2023-08-30T04:43:39;75009.50;;;-145.72;100.00
15914;BME280;8055;51.930;8.840;2023-08-30T04:46:04;75021.91;;;-145.72;100.00
15914;BME280;8055;51.930;8.840;2023-08-30T04:48:29;75015.69;;;-145.72;100.00
15914;BME280;8055;51.930;8.840;2023-08-30T04:51:02;75013.63;;;-145.72;100.00
15914;BME280;8055;51.930;8.840;2023-08-30T04:53:31;75013.63;;;-145.72;100.00
15914;BME280;8055;51.930;8.840;2023-08-30T04:55:56;75005.34;;;-145.72;100.00
15914;BME280;8055;51.930;8.840;2023-08-30T04:58:22;75003.28;;;-145.72;100.00
15914;BME280;8055;51.930;8.840;2023-08-30T05:00:47;75005.34;;;-145.72;100.00
15914;BME280;8055;51.930;8.840;2023-08-30T05:03:13;75003.28;;;-145.72;100.00
15914;BME280;8055;51.930;8.840;2023-08-30T05:05:38;75005.34;;;-145.72;100.00
15914;BME280;8055;51.930;8.840;2023-08-30T05:08:04;74986.72;;;-145.72;100.00
15914;BME280;8055;51.930;8.840;2023-08-30T05:10:29;74980.53;;;-145.72;100.00
15914;BME280;8055;51.930;8.840;2023-08-30T05:12:55;74992.94;;;-145.72;100.00
15914;BME280;8055;51.930;8.840;2023-08-30T05:15:20;74992.94;;;-145.72;100.00
15914;BME280;8055;51.930;8.840;2023-08-30T05:17:46;75001.22;;;-145.72;100.00
15914;BME280;8055;51.930;8.840;2023-08-30T05:20:12;74997.06;;;-145.72;100.00
15914;BME280;8055;51.930;8.840;2023-08-30T05:22:37;75001.22;;;-145.72;100.00
15914;BME280;8055;51.930;8.840;2023-08-30T05:25:03;75003.28;;;-145.72;100.00
15914;BME280;8055;51.930;8.840;2023-08-30T05:27:29;75005.34;;;-145.72;100.00
15914;BME280;8055;51.930;8.840;2023-08-30T05:29:55;75001.22;;;-145.72;100.00
15914;BME280;8055;51.930;8.840;2023-08-30T05:32:21;74992.94;;;-145.72;100.00
15914;BME280;8055;51.930;8.840;2023-08-30T05:34:47;74990.88;;;-145.72;100.00
15914;BME280;8055;51.930;8.840;2023-08-30T05:37:12;74980.53;;;-145.72;100.00
15914;BME280;8055;51.930;8.840;2023-08-30T05:39:38;74976.38;;;-145.72;100.00
15914;BME280;8055;51.930;8.840;2023-08-30T05:42:03;74970.19;;;-145.72;100.00
15914;BME280;8055;51.930;8.840;2023-08-30T05:44:29;74968.13;;;-145.72;100.00
15914;BME280;8055;51.930;8.840;2023-08-30T05:46:54;74959.84;;;-145.72;100.00
15914;BME280;8055;51.930;8.840;2023-08-30T05:49:20;74951.56;;;-145.72;100.00
15914;BME280;8055;51.930;8.840;2023-08-30T05:51:45;74943.28;;;-145.72;100.00
15914;BME280;8055;51.930;8.840;2023-08-30T05:54:10;74945.34;;;-145.72;100.00
15914;BME280;8055;51.930;8.840;2023-08-30T05:56:36;74943.28;;;-145.72;100.00
15914;BME280;8055;51.930;8.840;2023-08-30T05:59:02;74941.22;;;-145.72;100.00
15914;BME280;8055;51.930;8.840;2023-08-30T06:01:27;74930.88;;;-145.72;100.00
15914;BME280;8055;51.930;8.840;2023-08-30T06:03:52;74922.59;;;-145.72;100.00
15914;BME280;8055;51.930;8.840;2023-08-30T06:06:18;74924.66;;;-145.72;100.00
15914;BME280;8055;51.930;8.840;2023-08-30T06:08:43;74916.38;;;-145.72;100.00
15914;BME280;8055;51.930;8.840;2023-08-30T06:11:09;74914.31;;;-145.72;100.00
15914;BME280;8055;51.930;8.840;2023-08-30T06:13:34;74918.47;;;-145.72;100.00
15914;BME280;8055;51.930;8.840;2023-08-30T06:15:59;74903.97;;;-145.72;100.00
15914;BME280;8055;51.930;8.840;2023-08-30T06:18:29;74903.97;;;-145.72;100.00
15914;BME280;8055;51.930;8.840;2023-08-30T06:20:55;74893.63;;;-145.72;100.00
15914;BME280;8055;51.930;8.840;2023-08-30T06:23:20;74891.56;;;-145.72;100.00
15914;BME280;8055;51.930;8.840;2023-08-30T06:25:53;74883.28;;;-145.72;100.00
15914;BME280;8055;51.930;8.840;2023-08-30T06:28:19;74879.16;;;-145.72;100.00
15914;BME280;8055;51.930;8.840;2023-08-30T06:30:44;74870.88;;;-145.72;100.00
15914;BME280;8055;51.930;8.840;2023-08-30T06:33:09;74862.59;;;-145.72;100.00
15914;BME280;8055;51.930;8.840;2023-08-30T06:35:36;74854.31;;;-145.72;100.00
15914;BME280;8055;51.930;8.840;2023-08-30T06:38:04;74846.06;;;-145.72;100.00
15914;BME280;8055;51.930;8.840;2023-08-30T06:40:30;74848.13;;;-145.72;100.00
15914;BME280;8055;51.930;8.840;2023-08-30T06:42:55;74841.91;;;-145.72;100.00
15914;BME280;8055;51.930;8.840;2023-08-30T06:45:20;74843.97;;;-145.72;100.00
15914;BME280;8055;51.930;8.840;2023-08-30T06:47:48;74843.97;;;-145.72;100.00
15914;BME280;8055;51.930;8.840;2023-08-30T06:50:13;74831.56;;;-145.72;100.00
15914;BME280;8055;51.930;8.840;2023-08-30T06:52:39;74833.63;;;-145.72;100.00
15914;BME280;8055;51.930;8.840;2023-08-30T06:55:04;74839.84;;;-145.72;100.00
15914;BME280;8055;51.930;8.840;2023-08-30T06:57:30;74837.78;;;-145.72;100.00
15914;BME280;8055;51.930;8.840;2023-08-30T06:59:55;74837.78;;;-145.72;100.00
15914;BME280;8055;51.930;8.840;2023-08-30T07:02:21;74837.78;;;-145.72;100.00
15914;BME280;8055;51.930;8.840;2023-08-30T07:04:46;74831.56;;;-145.72;100.00
15914;BME280;8055;51.930;8.840;2023-08-30T07:07:12;74819.16;;;-145.72;100.00
15914;BME280;8055;51.930;8.840;2023-08-30T07:09:39;74829.50;;;-145.72;100.00
15914;BME280;8055;51.930;8.840;2023-08-30T07:12:05;74817.09;;;-145.72;100.00
15914;BME280;8055;51.930;8.840;2023-08-30T07:14:30;74821.22;;;-145.72;100.00
15914;BME280;8055;51.930;8.840;2023-08-30T07:16:55;74812.94;;;-145.72;100.00
15914;BME280;8055;51.930;8.840;2023-08-30T07:19:21;74806.75;;;-145.72;100.00
15914;BME280;8055;51.930;8.840;2023-08-30T07:21:46;74800.53;;;-145.72;100.00
15914;BME280;8055;51.930;8.840;2023-08-30T07:24:11;74796.41;;;-145.72;100.00
15914;BME280;8055;51.930;8.840;2023-08-30T07:26:37;74794.34;;;-145.72;100.00
15914;BME280;8055;51.930;8.840;2023-08-30T07:29:03;74779.84;;;-145.72;100.00
15914;BME280;8055;51.930;8.840;2023-08-30T07:31:32;74771.56;;;-145.72;100.00
15914;BME280;8055;51.930;8.840;2023-08-30T07:33:57;74769.50;;;-145.72;100.00
15914;BME280;8055;51.930;8.840;2023-08-30T07:36:26;74748.81;;;-145.72;100.00
15914;BME280;8055;51.930;8.840;2023-08-30T07:38:51;74752.97;;;-145.72;100.00
15914;BME280;8055;51.930;8.840;2023-08-30T07:41:17;74736.41;;;-145.72;100.00
15914;BME280;8055;51.930;8.840;2023-08-30T07:43:42;74713.66;;;-145.72;100.00
15914;BME280;8055;51.930;8.840;2023-08-30T07:46:08;74707.44;;;-145.72;100.00
15914;BME280;8055;51.930;8.840;2023-08-30T07:48:33;74699.19;;;-145.72;99.82
15914;BME280;8055;51.930;8.840;2023-08-30T07:50:58;74695.03;;;-145.72;99.99
15914;BME280;8055;51.930;8.840;2023-08-30T07:53:23;74682.63;;;-145.72;100.00
15914;BME280;8055;51.930;8.840;2023-08-30T07:55:49;74682.63;;;-145.72;99.03
15914;BME280;8055;51.930;8.840;2023-08-30T07:58:15;74664.00;;;-145.72;99.25
15914;BME280;8055;51.930;8.840;2023-08-30T08:00:41;74649.53;;;-145.72;97.38
15914;BME280;8055;51.930;8.840;2023-08-30T08:03:06;74637.13;;;-145.72;100.00
15914;BME280;8055;51.930;8.840;2023-08-30T08:05:32;74628.84;;;-145.72;99.14
15914;BME280;8055;51.930;8.840;2023-08-30T08:07:59;74614.34;;;-145.72;92.80
15914;BME280;8055;51.930;8.840;2023-08-30T08:10:26;74601.94;;;-145.72;92.13
15914;BME280;8055;51.930;8.840;2023-08-30T08:12:51;74610.22;;;-145.72;89.03
15914;BME280;8055;51.930;8.840;2023-08-30T08:15:17;74595.75;;;-145.72;88.32
15914;BME280;8055;51.930;8.840;2023-08-30T08:17:43;74597.81;;;-145.72;85.33
15914;BME280;8055;51.930;8.840;2023-08-30T08:20:08;74579.19;;;-145.72;87.90
15914;BME280;8055;51.930;8.840;2023-08-30T08:22:34;74568.84;;;-145.72;89.39
15914;BME280;8055;51.930;8.840;2023-08-30T08:24:59;74556.44;;;-145.72;89.08
15914;BME280;8055;51.930;8.840;2023-08-30T08:27:25;74554.38;;;-145.72;86.50
15914;BME280;8055;51.930;8.840;2023-08-30T08:29:50;74546.09;;;-145.72;83.26
15914;BME280;8055;51.930;8.840;2023-08-30T08:32:16;74519.19;;;-145.72;88.45
15914;BME280;8055;51.930;8.840;2023-08-30T08:34:41;74502.66;;;-145.72;85.96
15914;BME280;8055;51.930;8.840;2023-08-30T08:37:07;74490.25;;;-145.72;83.26
15914;BME280;8055;51.930;8.840;2023-08-30T08:39:32;74479.91;;;-145.72;81.54
15914;BME280;8055;51.930;8.840;2023-08-30T08:41:59;74467.50;;;-145.72;85.04
15914;BME280;8055;51.930;8.840;2023-08-30T08:44:26;74463.34;;;-145.72;80.59
15914;BME280;8055;51.930;8.840;2023-08-30T08:46:52;74450.94;;;-145.72;80.85
15914;BME280;8055;51.930;8.840;2023-08-30T08:49:18;74438.53;;;-145.72;80.39
15914;BME280;8055;51.930;8.840;2023-08-30T08:51:44;74432.31;;;-145.72;79.22
15914;BME280;8055;51.930;8.840;2023-08-30T08:54:11;74419.91;;;-145.72;80.09
15914;BME280;8055;51.930;8.840;2023-08-30T08:56:37;74405.44;;;-145.72;80.00
15914;BME280;8055;51.930;8.840;2023-08-30T08:59:03;74390.94;;;-145.72;77.47
15914;BME280;8055;51.930;8.840;2023-08-30T09:01:29;74405.44;;;-145.72;73.18
15914;BME280;8055;51.930;8.840;2023-08-30T09:03:55;74376.47;;;-145.72;76.27
15914;BME280;8055;51.930;8.840;2023-08-30T09:06:21;74357.84;;;-145.72;77.56
15914;BME280;8055;51.930;8.840;2023-08-30T09:08:47;74349.59;;;-145.72;75.47
15914;BME280;8055;51.930;8.840;2023-08-30T09:11:12;74330.97;;;-145.72;74.63
15914;BME280;8055;51.930;8.840;2023-08-30T09:13:38;74333.03;;;-145.72;75.22
15914;BME280;8055;51.930;8.840;2023-08-30T09:16:12;74318.56;;;-145.72;74.95
15914;BME280;8055;51.930;8.840;2023-08-30T09:18:39;74322.69;;;-145.72;70.49
15914;BME280;8055;51.930;8.840;2023-08-30T09:21:08;74316.50;;;-145.72;69.23
15914;BME280;8055;51.930;8.840;2023-08-30T09:23:34;74314.41;;;-145.72;67.38
15914;BME280;8055;51.930;8.840;2023-08-30T09:26:00;74310.28;;;-145.72;70.81
15914;BME280;8055;51.930;8.840;2023-08-30T09:28:26;74289.59;;;-145.72;71.17
15914;BME280;8055;51.930;8.840;2023-08-30T09:30:52;74273.06;;;-145.72;70.32
15914;BME280;8055;51.930;8.840;2023-08-30T09:33:36;74256.50;;;-145.72;70.86
15914;BME280;8055;51.930;8.840;2023-08-30T09:36:01;74248.22;;;-145.72;66.47
15914;BME280;8055;51.930;8.840;2023-08-30T09:38:26;74244.09;;;-145.72;65.53
15914;BME280;8055;51.930;8.840;2023-08-30T09:41:02;74231.69;;;-145.72;66.00
15914;BME280;8055;51.930;8.840;2023-08-30T09:43:28;74237.88;;;-145.72;67.22
15914;BME280;8055;51.930;8.840;2023-08-30T09:45:53;74217.19;;;-145.72;66.09
15914;BME280;8055;51.930;8.840;2023-08-30T09:48:22;74223.41;;;-145.72;65.87
15914;BME280;8055;51.930;8.840;2023-08-30T09:50:52;74206.84;;;-145.72;64.50
15914;BME280;8055;51.930;8.840;2023-08-30T09:53:20;74190.31;;;-145.72;63.36
15914;BME280;8055;51.930;8.840;2023-08-30T09:55:48;74182.03;;;-145.72;63.13
15914;BME280;8055;51.930;8.840;2023-08-30T09:58:14;74179.97;;;-145.72;62.12
15914;BME280;8055;51.930;8.840;2023-08-30T10:00:41;74142.75;;;-145.72;62.87
15914;BME280;8055;51.930;8.840;2023-08-30T10:03:07;74140.66;;;-145.72;61.44
15914;BME280;8055;51.930;8.840;2023-08-30T10:05:33;74124.13;;;-145.72;62.67
15914;BME280;8055;51.930;8.840;2023-08-30T10:08:00;74103.44;;;-145.72;63.98
15914;BME280;8055;51.930;8.840;2023-08-30T10:10:27;74120.00;;;-145.72;58.58
15914;BME280;8055;51.930;8.840;2023-08-30T10:12:55;74144.81;;;-145.72;60.24
15914;BME280;8055;51.930;8.840;2023-08-30T10:15:21;74179.97;;;-145.72;61.04
15914;BME280;8055;51.930;8.840;2023-08-30T10:17:52;74206.84;;;-145.72;61.03
15914;BME280;8055;51.930;8.840;2023-08-30T10:20:19;74200.66;;;-145.72;63.41
15914;BME280;8055;51.930;8.840;2023-08-30T10:22:45;74192.38;;;-145.72;65.01
15914;BME280;8055;51.930;8.840;2023-08-30T10:25:16;74184.09;;;-145.72;63.46
15914;BME280;8055;51.930;8.840;2023-08-30T10:27:46;74167.56;;;-145.72;64.78
15914;BME280;8055;51.930;8.840;2023-08-30T10:30:14;74153.09;;;-145.72;55.60
15914;BME280;8055;51.930;8.840;2023-08-30T10:32:41;74163.41;;;-145.72;54.87
15914;BME280;8055;51.930;8.840;2023-08-30T10:35:10;74159.28;;;-145.72;56.99
15914;BME280;8055;51.930;8.840;2023-08-30T10:37:37;74115.84;;;-145.72;61.81
15914;BME280;8055;51.930;8.840;2023-08-30T10:40:03;74084.81;;;-145.72;58.31
15914;BME280;8055;51.930;8.840;2023-08-30T10:42:29;74053.81;;;-145.72;57.10
15914;BME280;8055;51.930;8.840;2023-08-30T10:44:59;74035.19;;;-145.72;56.71
15914;BME280;8055;51.930;8.840;2023-08-30T10:47:30;74008.28;;;-145.72;55.52
15914;BME280;8055;51.930;8.840;2023-08-30T10:49:57;74004.16;;;-145.72;55.99
15914;BME280;8055;51.930;8.840;2023-08-30T10:52:23;74010.38;;;-145.72;57.63
15914;BME280;8055;51.930;8.840;2023-08-30T10:54:50;74041.38;;;-145.72;55.45
15914;BME280;8055;51.930;8.840;2023-08-30T10:57:20;74084.81;;;-145.72;58.55
15914;BME280;8055;51.930;8.840;2023-08-30T11:00:22;74101.38;;;-145.72;59.71
15914;BME280;8055;51.930;8.840;2023-08-30T11:02:49;74126.19;;;-145.72;60.10
15914;BME280;8055;51.930;8.840;2023-08-30T11:05:16;74132.41;;;-145.72;61.26
15914;BME280;8055;51.930;8.840;2023-08-30T11:07:45;74099.31;;;-145.72;60.37
15914;BME280;8055;51.930;8.840;2023-08-30T11:10:12;74070.34;;;-145.72;59.20
15914;BME280;8055;51.930;8.840;2023-08-30T11:12:40;74026.91;;;-145.72;60.01
15914;BME280;8055;51.930;8.840;2023-08-30T11:15:07;73995.88;;;-145.72;58.94
15914;BME280;8055;51.930;8.840;2023-08-30T11:17:33;73987.63;;;-145.72;58.67
15914;BME280;8055;51.930;8.840;2023-08-30T11:20:10;73956.59;;;-145.72;58.61
15914;BME280;8055;51.930;8.840;2023-08-30T11:22:37;73985.53;;;-145.72;57.06
15914;BME280;8055;51.930;8.840;2023-08-30T11:25:03;74008.28;;;-145.72;55.26
15914;BME280;8055;51.930;8.840;2023-08-30T11:27:29;74043.47;;;-145.72;54.92
15914;BME280;8055;51.930;8.840;2023-08-30T11:29:59;74072.41;;;-145.72;57.54
15914;BME280;8055;51.930;8.840;2023-08-30T11:32:24;74086.91;;;-145.72;55.62
15914;BME280;8055;51.930;8.840;2023-08-30T11:34:56;74091.03;;;-145.72;58.44
15914;BME280;8055;51.930;8.840;2023-08-30T11:37:23;74093.09;;;-145.72;57.81
15914;BME280;8055;51.930;8.840;2023-08-30T11:39:52;74086.91;;;-145.72;58.70
15914;BME280;8055;51.930;8.840;2023-08-30T11:42:18;74093.09;;;-145.72;58.17
15914;BME280;8055;51.930;8.840;2023-08-30T11:44:44;74101.38;;;-145.72;56.59
15914;BME280;8055;51.930;8.840;2023-08-30T11:47:10;74101.38;;;-145.72;58.87
15914;BME280;8055;51.930;8.840;2023-08-30T11:49:35;74109.66;;;-145.72;56.81
15914;BME280;8055;51.930;8.840;2023-08-30T11:52:02;74099.31;;;-145.72;56.84
15914;BME280;8055;51.930;8.840;2023-08-30T11:54:28;74086.91;;;-145.72;58.21
15914;BME280;8055;51.930;8.840;2023-08-30T11:56:53;74076.56;;;-145.72;58.59
15914;BME280;8055;51.930;8.840;2023-08-30T11:59:22;74074.47;;;-145.72;58.06
15914;BME280;8055;51.930;8.840;2023-08-30T12:01:54;74043.47;;;-145.72;56.72
15914;BME280;8055;51.930;8.840;2023-08-30T12:04:19;74018.63;;;-145.72;56.33
15914;BME280;8055;51.930;8.840;2023-08-30T12:06:52;74016.56;;;-145.72;57.52
15914;BME280;8055;51.930;8.840;2023-08-30T12:09:18;74000.03;;;-145.72;55.30
15914;BME280;8055;51.930;8.840;2023-08-30T12:11:50;73958.66;;;-145.72;54.62
15914;BME280;8055;51.930;8.840;2023-08-30T12:14:16;73946.25;;;-145.72;51.94
15914;BME280;8055;51.930;8.840;2023-08-30T12:16:42;73913.16;;;-145.72;52.40
15914;BME280;8055;51.930;8.840;2023-08-30T12:19:11;73896.59;;;-145.72;52.27
15914;BME280;8055;51.930;8.840;2023-08-30T12:21:44;73840.78;;;-145.72;51.90
15914;BME280;8055;51.930;8.840;2023-08-30T12:24:09;73826.28;;;-145.72;50.28
15914;BME280;8055;51.930;8.840;2023-08-30T12:26:35;73818.00;;;-145.72;47.69
15914;BME280;8055;51.930;8.840;2023-08-30T12:29:03;73822.16;;;-145.72;50.08
15914;BME280;8055;51.930;8.840;2023-08-30T12:31:28;73830.44;;;-145.72;49.41
15914;BME280;8055;51.930;8.840;2023-08-30T12:33:54;73846.97;;;-145.72;47.61
15914;BME280;8055;51.930;8.840;2023-08-30T12:36:20;73842.84;;;-145.72;48.10
15914;BME280;8055;51.930;8.840;2023-08-30T12:38:45;73838.69;;;-145.72;50.35
15914;BME280;8055;51.930;8.840;2023-08-30T12:41:10;73859.38;;;-145.72;46.83
15914;BME280;8055;51.930;8.840;2023-08-30T12:43:36;73890.41;;;-145.72;47.72